sensor_id;sensor_type;location;lat;lon;timestamp;P1;durP1;ratioP1;P2;durP2;ratioP2
26042;SDS011;13818;52.156;5.382;2022-10-03T00:02:15;13.52;;;1.70;;
26042;SDS011;13818;52.156;5.382;2022-10-03T00:04:57;8.60;;;1.33;;
26042;SDS011;13818;52.156;5.382;2022-10-03T00:07:41;6.57;;;1.48;;
26042;SDS011;13818;52.156;5.382;2022-10-03T00:10:22;9.88;;;1.17;;
26042;SDS011;13818;52.156;5.382;2022-10-03T00:13:02;12.38;;;1.25;;
26042;SDS011;13818;52.156;5.382;2022-10-03T00:15:38;6.90;;;1.20;;
26042;SDS011;13818;52.156;5.382;2022-10-03T00:18:14;8.60;;;1.20;;
26042;SDS011;13818;52.156;5.382;2022-10-03T00:20:58;10.95;;;1.75;;
26042;SDS011;13818;52.156;5.382;2022-10-03T00:23:37;7.55;;;1.17;;
26042;SDS011;13818;52.156;5.382;2022-10-03T00:26:11;5.97;;;1.02;;
26042;SDS011;13818;52.156;5.382;2022-10-03T00:28:58;8.27;;;1.13;;
26042;SDS011;13818;52.156;5.382;2022-10-03T00:31:36;7.93;;;1.30;;
26042;SDS011;13818;52.156;5.382;2022-10-03T00:34:13;10.50;;;1.38;;
26042;SDS011;13818;52.156;5.382;2022-10-03T00:36:54;8.40;;;1.42;;
26042;SDS011;13818;52.156;5.382;2022-10-03T00:39:39;10.00;;;1.52;;
26042;SDS011;13818;52.156;5.382;2022-10-03T00:42:26;7.97;;;1.15;;
26042;SDS011;13818;52.156;5.382;2022-10-03T00:45:14;8.07;;;1.25;;
26042;SDS011;13818;52.156;5.382;2022-10-03T00:51:24;9.95;;;1.38;;
26042;SDS011;13818;52.156;5.382;2022-10-03T00:54:06;8.98;;;1.33;;
26042;SDS011;13818;52.156;5.382;2022-10-03T00:56:58;8.25;;;0.95;;
26042;SDS011;13818;52.156;5.382;2022-10-03T00:59:37;6.18;;;0.98;;
26042;SDS011;13818;52.156;5.382;2022-10-03T01:02:23;6.93;;;1.60;;
26042;SDS011;13818;52.156;5.382;2022-10-03T01:05:02;8.70;;;1.30;;
26042;SDS011;13818;52.156;5.382;2022-10-03T01:07:49;9.00;;;1.13;;
26042;SDS011;13818;52.156;5.382;2022-10-03T01:10:25;5.95;;;1.00;;
26042;SDS011;13818;52.156;5.382;2022-10-03T01:13:07;5.97;;;0.98;;
26042;SDS011;13818;52.156;5.382;2022-10-03T01:15:51;6.38;;;1.48;;
26042;SDS011;13818;52.156;5.382;2022-10-03T01:18:31;5.90;;;1.10;;
26042;SDS011;13818;52.156;5.382;2022-10-03T01:21:11;8.65;;;1.15;;
26042;SDS011;13818;52.156;5.382;2022-10-03T01:26:47;4.63;;;1.45;;
26042;SDS011;13818;52.156;5.382;2022-10-03T01:29:20;5.10;;;1.00;;
26042;SDS011;13818;52.156;5.382;2022-10-03T01:32:14;5.88;;;1.13;;
26042;SDS011;13818;52.156;5.382;2022-10-03T01:34:50;7.38;;;1.77;;
26042;SDS011;13818;52.156;5.382;2022-10-03T01:37:26;5.60;;;1.13;;
26042;SDS011;13818;52.156;5.382;2022-10-03T01:39:58;5.95;;;1.13;;
26042;SDS011;13818;52.156;5.382;2022-10-03T01:45:13;10.35;;;1.10;;
26042;SDS011;13818;52.156;5.382;2022-10-03T01:47:51;9.77;;;1.05;;
26042;SDS011;13818;52.156;5.382;2022-10-03T01:50:25;4.10;;;1.05;;
26042;SDS011;13818;52.156;5.382;2022-10-03T01:53:00;10.27;;;1.42;;
26042;SDS011;13818;52.156;5.382;2022-10-03T01:55:36;6.85;;;1.95;;
26042;SDS011;13818;52.156;5.382;2022-10-03T01:58:10;10.68;;;1.20;;
26042;SDS011;13818;52.156;5.382;2022-10-03T02:00:46;7.80;;;1.13;;
26042;SDS011;13818;52.156;5.382;2022-10-03T02:03:19;12.18;;;1.40;;
26042;SDS011;13818;52.156;5.382;2022-10-03T02:05:53;7.03;;;1.00;;
26042;SDS011;13818;52.156;5.382;2022-10-03T02:08:28;8.80;;;1.17;;
26042;SDS011;13818;52.156;5.382;2022-10-03T02:11:04;10.95;;;1.42;;
26042;SDS011;13818;52.156;5.382;2022-10-03T02:13:37;17.70;;;1.65;;
26042;SDS011;13818;52.156;5.382;2022-10-03T02:16:12;6.53;;;0.75;;
26042;SDS011;13818;52.156;5.382;2022-10-03T02:18:45;12.90;;;1.00;;
26042;SDS011;13818;52.156;5.382;2022-10-03T02:21:17;15.80;;;2.33;;
26042;SDS011;13818;52.156;5.382;2022-10-03T02:23:46;4.47;;;1.10;;
26042;SDS011;13818;52.156;5.382;2022-10-03T02:32:40;7.25;;;1.20;;
26042;SDS011;13818;52.156;5.382;2022-10-03T02:38:23;4.85;;;1.20;;
26042;SDS011;13818;52.156;5.382;2022-10-03T02:41:12;3.47;;;0.77;;
26042;SDS011;13818;52.156;5.382;2022-10-03T02:47:03;4.25;;;1.13;;
26042;SDS011;13818;52.156;5.382;2022-10-03T02:49:55;9.88;;;1.30;;
26042;SDS011;13818;52.156;5.382;2022-10-03T02:55:49;10.88;;;1.10;;
26042;SDS011;13818;52.156;5.382;2022-10-03T03:01:50;6.25;;;1.10;;
26042;SDS011;13818;52.156;5.382;2022-10-03T03:04:35;5.20;;;0.65;;
26042;SDS011;13818;52.156;5.382;2022-10-03T03:07:36;20.67;;;1.30;;
26042;SDS011;13818;52.156;5.382;2022-10-03T03:10:32;8.13;;;1.45;;
26042;SDS011;13818;52.156;5.382;2022-10-03T03:19:36;5.32;;;0.75;;
26042;SDS011;13818;52.156;5.382;2022-10-03T03:22:25;5.53;;;1.05;;
26042;SDS011;13818;52.156;5.382;2022-10-03T03:25:15;3.63;;;0.80;;
26042;SDS011;13818;52.156;5.382;2022-10-03T03:28:07;3.80;;;0.98;;
26042;SDS011;13818;52.156;5.382;2022-10-03T03:30:46;6.05;;;0.82;;
26042;SDS011;13818;52.156;5.382;2022-10-03T03:33:21;7.28;;;1.00;;
26042;SDS011;13818;52.156;5.382;2022-10-03T03:35:56;5.15;;;0.82;;
26042;SDS011;13818;52.156;5.382;2022-10-03T03:38:30;5.47;;;0.88;;
26042;SDS011;13818;52.156;5.382;2022-10-03T03:44:19;11.82;;;1.15;;
26042;SDS011;13818;52.156;5.382;2022-10-03T03:47:02;6.95;;;1.25;;
26042;SDS011;13818;52.156;5.382;2022-10-03T03:49:55;10.30;;;1.85;;
26042;SDS011;13818;52.156;5.382;2022-10-03T03:52:36;8.10;;;0.68;;
26042;SDS011;13818;52.156;5.382;2022-10-03T03:55:23;6.20;;;1.05;;
26042;SDS011;13818;52.156;5.382;2022-10-03T03:58:08;6.65;;;0.80;;
26042;SDS011;13818;52.156;5.382;2022-10-03T04:00:55;5.20;;;0.82;;
26042;SDS011;13818;52.156;5.382;2022-10-03T04:03:36;2.95;;;0.90;;
26042;SDS011;13818;52.156;5.382;2022-10-03T04:06:15;6.88;;;1.15;;
26042;SDS011;13818;52.156;5.382;2022-10-03T04:09:04;4.82;;;0.93;;
26042;SDS011;13818;52.156;5.382;2022-10-03T04:11:45;9.27;;;0.70;;
26042;SDS011;13818;52.156;5.382;2022-10-03T04:14:28;10.18;;;1.13;;
26042;SDS011;13818;52.156;5.382;2022-10-03T04:17:17;7.45;;;1.02;;
26042;SDS011;13818;52.156;5.382;2022-10-03T04:20:17;4.47;;;0.93;;
26042;SDS011;13818;52.156;5.382;2022-10-03T04:22:59;6.45;;;0.93;;
26042;SDS011;13818;52.156;5.382;2022-10-03T04:25:49;10.25;;;1.80;;
26042;SDS011;13818;52.156;5.382;2022-10-03T04:28:29;6.47;;;1.85;;
26042;SDS011;13818;52.156;5.382;2022-10-03T04:33:54;4.88;;;0.98;;
26042;SDS011;13818;52.156;5.382;2022-10-03T04:36:36;5.00;;;0.82;;
26042;SDS011;13818;52.156;5.382;2022-10-03T04:39:39;11.70;;;1.10;;
26042;SDS011;13818;52.156;5.382;2022-10-03T04:42:15;6.97;;;1.25;;
26042;SDS011;13818;52.156;5.382;2022-10-03T04:44:56;4.20;;;1.20;;
26042;SDS011;13818;52.156;5.382;2022-10-03T04:47:34;6.68;;;1.23;;
26042;SDS011;13818;52.156;5.382;2022-10-03T04:50:17;4.90;;;1.00;;
26042;SDS011;13818;52.156;5.382;2022-10-03T04:52:55;7.18;;;1.02;;
26042;SDS011;13818;52.156;5.382;2022-10-03T04:55:29;3.15;;;1.20;;
26042;SDS011;13818;52.156;5.382;2022-10-03T04:58:06;3.45;;;1.58;;
26042;SDS011;13818;52.156;5.382;2022-10-03T05:00:46;4.93;;;1.27;;
26042;SDS011;13818;52.156;5.382;2022-10-03T05:03:20;9.10;;;1.70;;
26042;SDS011;13818;52.156;5.382;2022-10-03T05:08:33;5.65;;;1.25;;
26042;SDS011;13818;52.156;5.382;2022-10-03T05:11:11;9.27;;;1.60;;
26042;SDS011;13818;52.156;5.382;2022-10-03T05:16:25;10.25;;;1.55;;
26042;SDS011;13818;52.156;5.382;2022-10-03T05:19:04;10.60;;;1.63;;
26042;SDS011;13818;52.156;5.382;2022-10-03T05:21:49;4.05;;;1.48;;
26042;SDS011;13818;52.156;5.382;2022-10-03T05:24:25;10.65;;;1.52;;
26042;SDS011;13818;52.156;5.382;2022-10-03T05:27:03;13.03;;;1.40;;
26042;SDS011;13818;52.156;5.382;2022-10-03T05:29:39;8.93;;;1.25;;
26042;SDS011;13818;52.156;5.382;2022-10-03T05:32:12;6.68;;;1.27;;
26042;SDS011;13818;52.156;5.382;2022-10-03T05:34:53;2.35;;;0.70;;
26042;SDS011;13818;52.156;5.382;2022-10-03T05:37:43;6.85;;;1.05;;
26042;SDS011;13818;52.156;5.382;2022-10-03T05:40:24;5.20;;;1.25;;
26042;SDS011;13818;52.156;5.382;2022-10-03T05:43:03;7.53;;;1.20;;
26042;SDS011;13818;52.156;5.382;2022-10-03T05:45:44;8.13;;;1.75;;
26042;SDS011;13818;52.156;5.382;2022-10-03T05:48:17;9.60;;;1.88;;
26042;SDS011;13818;52.156;5.382;2022-10-03T05:51:06;7.75;;;1.40;;
26042;SDS011;13818;52.156;5.382;2022-10-03T05:56:55;8.07;;;1.25;;
26042;SDS011;13818;52.156;5.382;2022-10-03T05:59:44;8.40;;;1.60;;
26042;SDS011;13818;52.156;5.382;2022-10-03T06:02:37;7.20;;;1.30;;
26042;SDS011;13818;52.156;5.382;2022-10-03T06:05:35;9.85;;;1.13;;
26042;SDS011;13818;52.156;5.382;2022-10-03T06:11:24;10.07;;;1.60;;
26042;SDS011;13818;52.156;5.382;2022-10-03T06:14:13;3.88;;;1.10;;
26042;SDS011;13818;52.156;5.382;2022-10-03T06:16:55;8.90;;;1.27;;
26042;SDS011;13818;52.156;5.382;2022-10-03T06:19:37;5.82;;;1.13;;
26042;SDS011;13818;52.156;5.382;2022-10-03T06:22:26;5.78;;;1.00;;
26042;SDS011;13818;52.156;5.382;2022-10-03T06:25:13;6.00;;;1.30;;
26042;SDS011;13818;52.156;5.382;2022-10-03T06:28:29;8.13;;;1.50;;
26042;SDS011;13818;52.156;5.382;2022-10-03T06:31:20;8.70;;;1.25;;
26042;SDS011;13818;52.156;5.382;2022-10-03T06:34:09;5.90;;;1.60;;
26042;SDS011;13818;52.156;5.382;2022-10-03T06:36:57;13.35;;;1.65;;
26042;SDS011;13818;52.156;5.382;2022-10-03T06:42:58;7.13;;;2.15;;
26042;SDS011;13818;52.156;5.382;2022-10-03T06:48:59;6.75;;;1.70;;
26042;SDS011;13818;52.156;5.382;2022-10-03T06:51:57;9.05;;;2.40;;
26042;SDS011;13818;52.156;5.382;2022-10-03T06:57:36;9.40;;;2.25;;
26042;SDS011;13818;52.156;5.382;2022-10-03T07:00:16;12.15;;;2.70;;
26042;SDS011;13818;52.156;5.382;2022-10-03T07:03:10;8.15;;;2.28;;
26042;SDS011;13818;52.156;5.382;2022-10-03T07:06:07;5.82;;;1.50;;
26042;SDS011;13818;52.156;5.382;2022-10-03T07:08:51;9.00;;;1.30;;
26042;SDS011;13818;52.156;5.382;2022-10-03T07:18:19;8.15;;;2.10;;
26042;SDS011;13818;52.156;5.382;2022-10-03T07:21:18;9.73;;;1.40;;
26042;SDS011;13818;52.156;5.382;2022-10-03T07:24:07;7.03;;;1.52;;
26042;SDS011;13818;52.156;5.382;2022-10-03T07:26:55;4.40;;;1.02;;
26042;SDS011;13818;52.156;5.382;2022-10-03T07:29:55;5.83;;;1.33;;
26042;SDS011;13818;52.156;5.382;2022-10-03T07:32:55;2.33;;;0.80;;
26042;SDS011;13818;52.156;5.382;2022-10-03T07:35:50;6.45;;;0.95;;
26042;SDS011;13818;52.156;5.382;2022-10-03T07:39:08;5.18;;;1.20;;
26042;SDS011;13818;52.156;5.382;2022-10-03T07:41:56;7.80;;;1.27;;
26042;SDS011;13818;52.156;5.382;2022-10-03T07:44:41;11.55;;;1.73;;
26042;SDS011;13818;52.156;5.382;2022-10-03T07:47:51;8.80;;;1.58;;
26042;SDS011;13818;52.156;5.382;2022-10-03T07:53:48;9.70;;;1.80;;
26042;SDS011;13818;52.156;5.382;2022-10-03T07:57:00;6.35;;;1.63;;
26042;SDS011;13818;52.156;5.382;2022-10-03T08:02:32;5.45;;;1.30;;
26042;SDS011;13818;52.156;5.382;2022-10-03T08:05:31;6.38;;;1.70;;
26042;SDS011;13818;52.156;5.382;2022-10-03T08:08:15;7.93;;;1.60;;
26042;SDS011;13818;52.156;5.382;2022-10-03T08:11:10;7.90;;;1.02;;
26042;SDS011;13818;52.156;5.382;2022-10-03T08:13:58;10.18;;;1.15;;
26042;SDS011;13818;52.156;5.382;2022-10-03T08:16:40;10.10;;;1.33;;
26042;SDS011;13818;52.156;5.382;2022-10-03T08:19:42;2.47;;;0.98;;
26042;SDS011;13818;52.156;5.382;2022-10-03T08:22:24;4.78;;;0.98;;
26042;SDS011;13818;52.156;5.382;2022-10-03T08:25:11;6.00;;;1.00;;
26042;SDS011;13818;52.156;5.382;2022-10-03T08:30:58;7.25;;;1.10;;
26042;SDS011;13818;52.156;5.382;2022-10-03T08:36:44;3.22;;;0.88;;
26042;SDS011;13818;52.156;5.382;2022-10-03T08:42:35;4.88;;;1.02;;
26042;SDS011;13818;52.156;5.382;2022-10-03T08:45:48;7.63;;;1.25;;
26042;SDS011;13818;52.156;5.382;2022-10-03T08:48:38;6.47;;;1.08;;
26042;SDS011;13818;52.156;5.382;2022-10-03T08:54:27;6.70;;;0.85;;
26042;SDS011;13818;52.156;5.382;2022-10-03T09:00:35;3.92;;;0.90;;
26042;SDS011;13818;52.156;5.382;2022-10-03T09:06:26;8.13;;;1.15;;
26042;SDS011;13818;52.156;5.382;2022-10-03T09:09:20;6.22;;;1.05;;
26042;SDS011;13818;52.156;5.382;2022-10-03T09:12:30;3.38;;;1.05;;
26042;SDS011;13818;52.156;5.382;2022-10-03T09:15:14;5.53;;;1.00;;
26042;SDS011;13818;52.156;5.382;2022-10-03T09:21:14;5.97;;;1.00;;
26042;SDS011;13818;52.156;5.382;2022-10-03T09:24:20;3.90;;;0.80;;
26042;SDS011;13818;52.156;5.382;2022-10-03T09:27:09;5.13;;;0.80;;
26042;SDS011;13818;52.156;5.382;2022-10-03T09:29:53;3.20;;;0.80;;
26042;SDS011;13818;52.156;5.382;2022-10-03T09:32:43;4.00;;;1.08;;
26042;SDS011;13818;52.156;5.382;2022-10-03T09:35:53;4.03;;;0.85;;
26042;SDS011;13818;52.156;5.382;2022-10-03T09:38:46;3.40;;;1.02;;
26042;SDS011;13818;52.156;5.382;2022-10-03T09:41:37;7.38;;;1.20;;
26042;SDS011;13818;52.156;5.382;2022-10-03T09:44:23;5.75;;;1.50;;
26042;SDS011;13818;52.156;5.382;2022-10-03T09:47:30;2.78;;;0.73;;
26042;SDS011;13818;52.156;5.382;2022-10-03T09:53:21;6.38;;;1.33;;
26042;SDS011;13818;52.156;5.382;2022-10-03T10:02:10;9.05;;;1.25;;
26042;SDS011;13818;52.156;5.382;2022-10-03T10:05:07;4.40;;;0.90;;
26042;SDS011;13818;52.156;5.382;2022-10-03T10:11:12;2.90;;;0.98;;
26042;SDS011;13818;52.156;5.382;2022-10-03T10:17:08;9.67;;;1.30;;
26042;SDS011;13818;52.156;5.382;2022-10-03T10:20:15;4.05;;;0.95;;
26042;SDS011;13818;52.156;5.382;2022-10-03T10:23:06;3.10;;;0.80;;
26042;SDS011;13818;52.156;5.382;2022-10-03T10:25:57;7.30;;;1.00;;
26042;SDS011;13818;52.156;5.382;2022-10-03T10:35:20;5.60;;;1.25;;
26042;SDS011;13818;52.156;5.382;2022-10-03T10:41:48;8.18;;;1.00;;
26042;SDS011;13818;52.156;5.382;2022-10-03T11:03:02;9.52;;;2.35;;
26042;SDS011;13818;52.156;5.382;2022-10-03T11:09:16;4.07;;;0.68;;
26042;SDS011;13818;52.156;5.382;2022-10-03T11:15:25;5.93;;;1.08;;
26042;SDS011;13818;52.156;5.382;2022-10-03T11:24:25;5.25;;;1.25;;
26042;SDS011;13818;52.156;5.382;2022-10-03T11:30:17;5.70;;;1.08;;
26042;SDS011;13818;52.156;5.382;2022-10-03T11:39:08;4.18;;;0.50;;
26042;SDS011;13818;52.156;5.382;2022-10-03T11:41:45;11.52;;;1.20;;
26042;SDS011;13818;52.156;5.382;2022-10-03T11:44:17;7.40;;;1.20;;
26042;SDS011;13818;52.156;5.382;2022-10-03T11:49:48;4.30;;;1.10;;
26042;SDS011;13818;52.156;5.382;2022-10-03T11:52:30;8.00;;;1.20;;
26042;SDS011;13818;52.156;5.382;2022-10-03T11:55:03;8.65;;;1.10;;
26042;SDS011;13818;52.156;5.382;2022-10-03T11:57:41;8.48;;;1.15;;
26042;SDS011;13818;52.156;5.382;2022-10-03T12:00:11;8.98;;;1.55;;
26042;SDS011;13818;52.156;5.382;2022-10-03T12:02:45;9.40;;;1.30;;
26042;SDS011;13818;52.156;5.382;2022-10-03T12:05:26;3.80;;;0.77;;
26042;SDS011;13818;52.156;5.382;2022-10-03T12:08:09;7.18;;;1.30;;
26042;SDS011;13818;52.156;5.382;2022-10-03T12:11:06;8.63;;;1.58;;
26042;SDS011;13818;52.156;5.382;2022-10-03T12:13:40;8.05;;;1.33;;
26042;SDS011;13818;52.156;5.382;2022-10-03T12:16:14;5.05;;;0.90;;
26042;SDS011;13818;52.156;5.382;2022-10-03T12:18:54;4.90;;;0.65;;
26042;SDS011;13818;52.156;5.382;2022-10-03T12:21:28;8.07;;;1.42;;
26042;SDS011;13818;52.156;5.382;2022-10-03T12:24:21;10.95;;;1.00;;
26042;SDS011;13818;52.156;5.382;2022-10-03T12:26:52;9.13;;;1.20;;
26042;SDS011;13818;52.156;5.382;2022-10-03T12:29:24;4.78;;;1.00;;
26042;SDS011;13818;52.156;5.382;2022-10-03T12:31:59;3.30;;;0.73;;
26042;SDS011;13818;52.156;5.382;2022-10-03T12:34:36;7.50;;;1.17;;
26042;SDS011;13818;52.156;5.382;2022-10-03T12:37:09;4.88;;;1.00;;
26042;SDS011;13818;52.156;5.382;2022-10-03T12:39:54;6.13;;;0.75;;
26042;SDS011;13818;52.156;5.382;2022-10-03T12:42:30;4.57;;;0.90;;
26042;SDS011;13818;52.156;5.382;2022-10-03T12:45:02;9.00;;;1.25;;
26042;SDS011;13818;52.156;5.382;2022-10-03T12:47:41;8.85;;;1.10;;
26042;SDS011;13818;52.156;5.382;2022-10-03T12:50:30;6.18;;;1.10;;
26042;SDS011;13818;52.156;5.382;2022-10-03T12:53:12;7.95;;;0.95;;
26042;SDS011;13818;52.156;5.382;2022-10-03T12:55:54;4.72;;;1.20;;
26042;SDS011;13818;52.156;5.382;2022-10-03T13:01:01;6.43;;;1.23;;
26042;SDS011;13818;52.156;5.382;2022-10-03T13:03:38;6.07;;;0.80;;
26042;SDS011;13818;52.156;5.382;2022-10-03T13:09:14;7.10;;;1.23;;
26042;SDS011;13818;52.156;5.382;2022-10-03T13:11:53;13.07;;;1.50;;
26042;SDS011;13818;52.156;5.382;2022-10-03T13:14:29;3.90;;;0.93;;
26042;SDS011;13818;52.156;5.382;2022-10-03T13:17:09;8.40;;;1.00;;
26042;SDS011;13818;52.156;5.382;2022-10-03T13:22:23;5.57;;;1.10;;
26042;SDS011;13818;52.156;5.382;2022-10-03T13:25:02;7.95;;;1.80;;
26042;SDS011;13818;52.156;5.382;2022-10-03T13:27:39;7.60;;;1.00;;
26042;SDS011;13818;52.156;5.382;2022-10-03T13:30:12;6.03;;;1.40;;
26042;SDS011;13818;52.156;5.382;2022-10-03T13:32:45;12.95;;;1.20;;
26042;SDS011;13818;52.156;5.382;2022-10-03T13:35:20;4.82;;;1.23;;
26042;SDS011;13818;52.156;5.382;2022-10-03T13:38:16;5.38;;;1.00;;
26042;SDS011;13818;52.156;5.382;2022-10-03T13:40:54;8.05;;;1.33;;
26042;SDS011;13818;52.156;5.382;2022-10-03T13:43:29;9.20;;;1.27;;
26042;SDS011;13818;52.156;5.382;2022-10-03T13:46:02;5.45;;;1.00;;
26042;SDS011;13818;52.156;5.382;2022-10-03T13:48:36;4.20;;;1.10;;
26042;SDS011;13818;52.156;5.382;2022-10-03T13:51:05;9.15;;;2.17;;
26042;SDS011;13818;52.156;5.382;2022-10-03T13:53:49;7.70;;;2.00;;
26042;SDS011;13818;52.156;5.382;2022-10-03T13:56:24;8.52;;;1.10;;
26042;SDS011;13818;52.156;5.382;2022-10-03T13:59:05;8.43;;;1.50;;
26042;SDS011;13818;52.156;5.382;2022-10-03T14:01:46;9.15;;;0.98;;
26042;SDS011;13818;52.156;5.382;2022-10-03T14:04:24;8.65;;;1.75;;
26042;SDS011;13818;52.156;5.382;2022-10-03T14:07:02;8.13;;;1.40;;
26042;SDS011;13818;52.156;5.382;2022-10-03T14:09:43;9.73;;;1.60;;
26042;SDS011;13818;52.156;5.382;2022-10-03T14:12:46;9.07;;;1.45;;
26042;SDS011;13818;52.156;5.382;2022-10-03T14:15:30;8.40;;;1.58;;
26042;SDS011;13818;52.156;5.382;2022-10-03T14:18:07;6.63;;;1.50;;
26042;SDS011;13818;52.156;5.382;2022-10-03T14:23:44;9.98;;;1.48;;
26042;SDS011;13818;52.156;5.382;2022-10-03T14:26:20;9.02;;;1.30;;
26042;SDS011;13818;52.156;5.382;2022-10-03T14:28:54;8.82;;;1.20;;
26042;SDS011;13818;52.156;5.382;2022-10-03T14:31:29;7.05;;;1.40;;
26042;SDS011;13818;52.156;5.382;2022-10-03T14:34:01;9.52;;;1.92;;
26042;SDS011;13818;52.156;5.382;2022-10-03T14:36:35;13.27;;;1.92;;
26042;SDS011;13818;52.156;5.382;2022-10-03T14:39:15;11.57;;;1.20;;
26042;SDS011;13818;52.156;5.382;2022-10-03T14:42:06;5.85;;;1.60;;
26042;SDS011;13818;52.156;5.382;2022-10-03T14:44:53;11.77;;;2.08;;
26042;SDS011;13818;52.156;5.382;2022-10-03T14:47:23;5.53;;;1.45;;
26042;SDS011;13818;52.156;5.382;2022-10-03T14:49:52;8.35;;;1.52;;
26042;SDS011;13818;52.156;5.382;2022-10-03T14:52:23;3.22;;;1.20;;
26042;SDS011;13818;52.156;5.382;2022-10-03T14:54:56;7.45;;;1.20;;
26042;SDS011;13818;52.156;5.382;2022-10-03T14:57:29;6.10;;;1.00;;
26042;SDS011;13818;52.156;5.382;2022-10-03T14:59:57;8.13;;;1.20;;
26042;SDS011;13818;52.156;5.382;2022-10-03T15:02:29;6.63;;;1.10;;
26042;SDS011;13818;52.156;5.382;2022-10-03T15:05:01;8.88;;;1.25;;
26042;SDS011;13818;52.156;5.382;2022-10-03T15:07:34;10.88;;;1.27;;
26042;SDS011;13818;52.156;5.382;2022-10-03T15:10:04;4.07;;;0.98;;
26042;SDS011;13818;52.156;5.382;2022-10-03T15:12:33;14.48;;;6.05;;
26042;SDS011;13818;52.156;5.382;2022-10-03T15:15:04;4.30;;;1.45;;
26042;SDS011;13818;52.156;5.382;2022-10-03T15:17:43;5.97;;;1.13;;
26042;SDS011;13818;52.156;5.382;2022-10-03T15:20:12;6.80;;;1.42;;
26042;SDS011;13818;52.156;5.382;2022-10-03T15:22:45;7.95;;;1.15;;
26042;SDS011;13818;52.156;5.382;2022-10-03T15:25:15;4.57;;;0.70;;
26042;SDS011;13818;52.156;5.382;2022-10-03T15:27:44;7.70;;;1.45;;
26042;SDS011;13818;52.156;5.382;2022-10-03T15:30:18;9.15;;;1.40;;
26042;SDS011;13818;52.156;5.382;2022-10-03T15:32:47;9.60;;;3.95;;
26042;SDS011;13818;52.156;5.382;2022-10-03T15:35:16;15.35;;;2.53;;
26042;SDS011;13818;52.156;5.382;2022-10-03T15:37:48;5.93;;;1.52;;
26042;SDS011;13818;52.156;5.382;2022-10-03T15:40:20;5.67;;;1.33;;
26042;SDS011;13818;52.156;5.382;2022-10-03T15:42:51;6.10;;;1.73;;
26042;SDS011;13818;52.156;5.382;2022-10-03T15:45:27;9.82;;;1.30;;
26042;SDS011;13818;52.156;5.382;2022-10-03T15:47:59;3.20;;;1.10;;
26042;SDS011;13818;52.156;5.382;2022-10-03T15:50:30;4.78;;;1.17;;
26042;SDS011;13818;52.156;5.382;2022-10-03T15:53:00;7.65;;;1.52;;
26042;SDS011;13818;52.156;5.382;2022-10-03T15:55:35;13.15;;;1.30;;
26042;SDS011;13818;52.156;5.382;2022-10-03T15:58:11;8.80;;;1.30;;
26042;SDS011;13818;52.156;5.382;2022-10-03T16:00:42;9.07;;;1.52;;
26042;SDS011;13818;52.156;5.382;2022-10-03T16:03:15;9.82;;;1.60;;
26042;SDS011;13818;52.156;5.382;2022-10-03T16:05:50;7.78;;;1.05;;
26042;SDS011;13818;52.156;5.382;2022-10-03T16:08:21;7.80;;;1.30;;
26042;SDS011;13818;52.156;5.382;2022-10-03T16:10:56;10.73;;;1.77;;
26042;SDS011;13818;52.156;5.382;2022-10-03T16:13:32;8.32;;;1.77;;
26042;SDS011;13818;52.156;5.382;2022-10-03T16:16:07;11.68;;;1.73;;
26042;SDS011;13818;52.156;5.382;2022-10-03T16:18:41;8.45;;;2.05;;
26042;SDS011;13818;52.156;5.382;2022-10-03T16:21:16;6.85;;;1.48;;
26042;SDS011;13818;52.156;5.382;2022-10-03T16:23:52;5.82;;;1.48;;
26042;SDS011;13818;52.156;5.382;2022-10-03T16:26:24;8.38;;;1.23;;
26042;SDS011;13818;52.156;5.382;2022-10-03T16:28:56;11.18;;;1.83;;
26042;SDS011;13818;52.156;5.382;2022-10-03T16:31:31;9.98;;;1.67;;
26042;SDS011;13818;52.156;5.382;2022-10-03T16:34:06;5.80;;;1.40;;
26042;SDS011;13818;52.156;5.382;2022-10-03T16:36:42;14.15;;;1.60;;
26042;SDS011;13818;52.156;5.382;2022-10-03T16:39:16;7.10;;;1.58;;
26042;SDS011;13818;52.156;5.382;2022-10-03T16:41:46;7.18;;;1.50;;
26042;SDS011;13818;52.156;5.382;2022-10-03T16:44:17;6.70;;;1.98;;
26042;SDS011;13818;52.156;5.382;2022-10-03T16:46:45;9.80;;;2.00;;
26042;SDS011;13818;52.156;5.382;2022-10-03T16:49:21;9.48;;;2.20;;
26042;SDS011;13818;52.156;5.382;2022-10-03T16:54:40;7.65;;;1.60;;
26042;SDS011;13818;52.156;5.382;2022-10-03T16:57:10;8.70;;;1.60;;
26042;SDS011;13818;52.156;5.382;2022-10-03T16:59:40;10.40;;;1.75;;
26042;SDS011;13818;52.156;5.382;2022-10-03T17:02:13;7.93;;;1.15;;
26042;SDS011;13818;52.156;5.382;2022-10-03T17:04:44;4.38;;;1.15;;
26042;SDS011;13818;52.156;5.382;2022-10-03T17:07:15;8.02;;;1.67;;
26042;SDS011;13818;52.156;5.382;2022-10-03T17:09:47;13.05;;;1.98;;
26042;SDS011;13818;52.156;5.382;2022-10-03T17:12:16;10.10;;;2.17;;
26042;SDS011;13818;52.156;5.382;2022-10-03T17:14:47;5.53;;;1.85;;
26042;SDS011;13818;52.156;5.382;2022-10-03T17:19:53;9.23;;;1.85;;
26042;SDS011;13818;52.156;5.382;2022-10-03T17:22:26;7.63;;;2.15;;
26042;SDS011;13818;52.156;5.382;2022-10-03T17:25:00;8.90;;;2.95;;
26042;SDS011;13818;52.156;5.382;2022-10-03T17:27:31;9.48;;;1.90;;
26042;SDS011;13818;52.156;5.382;2022-10-03T17:30:03;10.30;;;2.70;;
26042;SDS011;13818;52.156;5.382;2022-10-03T17:32:39;10.98;;;3.20;;
26042;SDS011;13818;52.156;5.382;2022-10-03T17:35:11;11.50;;;3.80;;
26042;SDS011;13818;52.156;5.382;2022-10-03T17:40:48;8.00;;;2.55;;
26042;SDS011;13818;52.156;5.382;2022-10-03T17:43:23;41.40;;;17.55;;
26042;SDS011;13818;52.156;5.382;2022-10-03T17:46:01;25.05;;;8.38;;
26042;SDS011;13818;52.156;5.382;2022-10-03T17:48:33;14.80;;;4.43;;
26042;SDS011;13818;52.156;5.382;2022-10-03T17:51:19;9.18;;;3.80;;
26042;SDS011;13818;52.156;5.382;2022-10-03T17:53:56;17.77;;;4.13;;
26042;SDS011;13818;52.156;5.382;2022-10-03T17:56:24;13.77;;;3.85;;
26042;SDS011;13818;52.156;5.382;2022-10-03T17:58:57;10.88;;;4.07;;
26042;SDS011;13818;52.156;5.382;2022-10-03T18:01:28;17.42;;;3.70;;
26042;SDS011;13818;52.156;5.382;2022-10-03T18:04:00;12.52;;;4.10;;
26042;SDS011;13818;52.156;5.382;2022-10-03T18:09:28;9.82;;;3.92;;
26042;SDS011;13818;52.156;5.382;2022-10-03T18:12:07;14.30;;;4.50;;
26042;SDS011;13818;52.156;5.382;2022-10-03T18:14:49;15.90;;;5.57;;
26042;SDS011;13818;52.156;5.382;2022-10-03T18:17:31;14.23;;;4.88;;
26042;SDS011;13818;52.156;5.382;2022-10-03T18:20:09;14.73;;;5.35;;
26042;SDS011;13818;52.156;5.382;2022-10-03T18:22:56;13.02;;;5.32;;
26042;SDS011;13818;52.156;5.382;2022-10-03T18:25:29;13.57;;;5.22;;
26042;SDS011;13818;52.156;5.382;2022-10-03T18:28:25;13.65;;;3.95;;
26042;SDS011;13818;52.156;5.382;2022-10-03T18:30:57;11.77;;;3.90;;
26042;SDS011;13818;52.156;5.382;2022-10-03T18:33:26;7.57;;;3.47;;
26042;SDS011;13818;52.156;5.382;2022-10-03T18:35:56;7.00;;;3.42;;
26042;SDS011;13818;52.156;5.382;2022-10-03T18:38:28;11.18;;;3.05;;
26042;SDS011;13818;52.156;5.382;2022-10-03T18:41:00;11.20;;;3.17;;
26042;SDS011;13818;52.156;5.382;2022-10-03T18:43:30;10.57;;;3.45;;
26042;SDS011;13818;52.156;5.382;2022-10-03T18:46:02;9.40;;;2.60;;
26042;SDS011;13818;52.156;5.382;2022-10-03T18:51:33;12.55;;;3.50;;
26042;SDS011;13818;52.156;5.382;2022-10-03T18:54:06;12.23;;;3.72;;
26042;SDS011;13818;52.156;5.382;2022-10-03T18:56:44;15.35;;;4.05;;
26042;SDS011;13818;52.156;5.382;2022-10-03T18:59:13;14.95;;;3.97;;
26042;SDS011;13818;52.156;5.382;2022-10-03T19:01:50;11.00;;;3.47;;
26042;SDS011;13818;52.156;5.382;2022-10-03T19:04:20;8.80;;;3.38;;
26042;SDS011;13818;52.156;5.382;2022-10-03T19:07:02;13.13;;;3.85;;
26042;SDS011;13818;52.156;5.382;2022-10-03T19:09:42;13.30;;;4.10;;
26042;SDS011;13818;52.156;5.382;2022-10-03T19:12:28;10.00;;;3.42;;
26042;SDS011;13818;52.156;5.382;2022-10-03T19:15:01;11.48;;;3.63;;
26042;SDS011;13818;52.156;5.382;2022-10-03T19:17:40;10.00;;;3.72;;